Flight Track Log - Related Links

Times and Time Zones

All times are in EDT time to prevent confusion due to time zone crossing. See the ASQ5415 flight status page for this flight to view local times or setup timezone preferences in your user account.

Time Position Orientation Groundspeed Altitude Reporting Facility
EDT Latitude Longitude Course Direction KTS MPH feet Rate Location/Type
Wed 07:07:40 AM 30.7211 -88.2631 26° Northeast 158 182 1,500  Level Houston Center
Wed 07:08:41 AM 30.7700 -88.2356 26° Northeast 200 230 3,100 1,736 Climbing Houston Center
Wed 07:09:41 AM 30.8342 -88.1992 26° Northeast 248 285 5,000 1,934 Climbing Houston Center
Wed 07:10:42 AM 30.8903 -88.1386 43° Northeast 277 319 7,000 2,182 Climbing Houston Center
Wed 07:11:42 AM 30.9550 -88.0514 49° Northeast 299 344 9,400 2,033 Climbing Houston Center
Wed 07:12:43 AM 31.0119 -87.9761 49° Northeast 312 359 11,100 1,721 Climbing Houston Center
Wed 07:13:44 AM 31.0706 -87.8975 49° Northeast 322 371 12,900 1,736 Climbing Houston Center
Wed 07:14:44 AM 31.1311 -87.8178 48° Northeast 329 379 14,600 1,636 Climbing Houston Center
Wed 07:15:45 AM 31.1922 -87.7350 49° Northeast 336 387 16,200 1,525 Climbing Houston Center
Wed 07:16:46 AM 31.2550 -87.6517 49° Northeast 342 394 17,700 1,279 Climbing Houston Center
Wed 07:17:47 AM 31.3142 -87.5694 50° Northeast 346 398 18,800 1,240 Climbing Houston Center
Wed 07:18:47 AM 31.3833 -87.4781 48° Northeast 357 411 20,200 992 Climbing Houston Center
Wed 07:19:48 AM 31.4486 -87.3886 49° Northeast 361 415 20,800 541 Climbing Houston Center
Wed 07:20:49 AM 31.5181 -87.2936 49° Northeast 381 438 21,300 492 Climbing Houston Center
Wed 07:21:50 AM 31.5883 -87.1958 50° Northeast 392 451 21,800 545 Climbing Houston Center
Wed 07:22:50 AM 31.6611 -87.0975 49° Northeast 400 460 22,400 595 Climbing Houston Center
Wed 07:23:51 AM 31.7483 -86.9758 50° Northeast 406 467 23,000 541 Climbing Houston Center
Wed 07:24:52 AM 31.8219 -86.8744 49° Northeast 410 472 23,500 492 Climbing Houston Center
Wed 07:25:53 AM 31.8953 -86.7725 50° Northeast 408 470 24,000 246 Climbing Houston Center
Wed 07:26:54 AM 31.9686 -86.6708 50° Northeast 415 478 24,000  Level Houston Center
Wed 07:28:05 AM 32.0719 -86.5414 47° Northeast 419 482 24,000  Level Atlanta Center
Wed 07:29:05 AM 32.1533 -86.4308 49° Northeast 424 488 24,000  Level Atlanta Center
Wed 07:30:05 AM 32.2181 -86.3319 52° Northeast 431 496 24,000  Level Atlanta Center
Wed 07:31:05 AM 32.2972 -86.2183 50° Northeast 439 505 24,000  Level Atlanta Center
Wed 07:32:05 AM 32.3867 -86.1075 46° Northeast 445 512 24,000 -550 Level Atlanta Center
Wed 07:33:05 AM 32.4594 -86.0008 51° Northeast 450 518 22,900 -950 Descending Atlanta Center
Wed 07:34:05 AM 32.5553 -85.8747 48° Northeast 450 518 22,100 -650 Descending Atlanta Center
Wed 07:35:05 AM 32.6342 -85.7703 48° Northeast 443 510 21,600 -500 Descending Atlanta Center
Wed 07:36:05 AM 32.7128 -85.6633 49° Northeast 431 496 21,100 -500 Descending Atlanta Center
Wed 07:37:05 AM 32.7914 -85.5586 48° Northeast 425 489 20,600 -500 Descending Atlanta Center
Wed 07:38:05 AM 32.8697 -85.4558 48° Northeast 425 489 20,100 -500 Descending Atlanta Center
Wed 07:39:05 AM 32.9461 -85.3483 50° Northeast 425 489 19,600 -950 Descending Atlanta Center
Wed 07:40:05 AM 33.0244 -85.2453 48° Northeast 425 489 18,200 -1,700 Descending Atlanta Center
Wed 07:41:05 AM 33.0942 -85.1572 47° Northeast 414 476 16,200 -2,000 Descending Atlanta Center
Wed 07:42:05 AM 33.1700 -85.0564 48° Northeast 407 468 14,200 -1,200 Descending Atlanta Center
Wed 07:43:05 AM 33.2397 -84.9578 50° Northeast 401 461 13,800 -450 Descending Atlanta Center
Wed 07:44:05 AM 33.3114 -84.8642 47° Northeast 385 443 13,300 -500 Descending Atlanta Center
Wed 07:45:05 AM 33.3808 -84.7703 48° Northeast 380 437 12,800 -500 Descending Atlanta Center
Wed 07:46:05 AM 33.4567 -84.6689 48° Northeast 380 437 12,300 -400 Descending Atlanta Center
Wed 07:47:05 AM 33.5175 -84.5869 48° Northeast 353 406 12,000 -550 Descending Atlanta Center
Wed 07:48:05 AM 33.5469 -84.5100 65° Northeast 280 322 11,200 -1,350 Descending Atlanta Center
Wed 07:49:05 AM 33.5453 -84.4250 91° East 249 287 9,300 -2,000 Descending Atlanta Center
Wed 07:49:47 AM 33.5500 -84.3667 84° East 249 287 7,800 -1,938 Descending Atlanta TRACON
Wed 07:50:41 AM 33.5500 -84.3000 90° East 237 273 6,200 -1,632 Descending Atlanta TRACON
Wed 07:51:41 AM 33.5500 -84.2167 90° East 242 278 4,700 -1,421 Descending Atlanta TRACON
Wed 07:52:35 AM 33.5500 -84.1333 90° East 242 278 3,500 -895 Descending Atlanta TRACON
Wed 07:53:35 AM 33.5833 -84.1167 23° Northeast 201 231 3,000 -263 Descending Atlanta TRACON
Wed 07:54:29 AM 33.6167 -84.1500 320° Northwest 185 213 3,000  Level Atlanta TRACON
Wed 07:55:29 AM 33.6167 -84.2000 270° West 187 215 3,000  Level Atlanta TRACON
Wed 07:56:29 AM 33.6167 -84.2667 270° West 187 215 3,000 -250 Level Atlanta TRACON
Wed 07:57:29 AM 33.6167 -84.3333 270° West 170 196 2,500 -632 Descending Atlanta TRACON
Wed 07:58:23 AM 33.6167 -84.3667 270° West 141 162 1,800 -778 Descending Atlanta TRACON
Wed 08:00:00 AM 33.6333 -84.4167 292° West  Level FlightAware Approximate
Wed 08:07:00 AM 33.6367 -84.4279 292° West  Level Estimated

Login

Don't have an account? Register now (free) for customized features, flight alerts, and more!